createdAt,value
2023-01-29T00:00:21.981Z,86.35
2023-01-29T00:02:48.781Z,86.27
2023-01-29T00:05:27.066Z,86.49
2023-01-29T00:07:54.306Z,83.83
2023-01-29T00:10:21.040Z,86.38
2023-01-29T00:12:47.611Z,85.76
2023-01-29T00:15:14.163Z,86.73
2023-01-29T00:17:40.709Z,86.72
2023-01-29T00:20:07.595Z,85.93
2023-01-29T00:22:34.119Z,85.78
2023-01-29T00:25:00.687Z,86.82
2023-01-29T00:27:27.253Z,86.26
2023-01-29T00:30:13.097Z,86.39
2023-01-29T00:32:40.745Z,85.84
2023-01-29T00:35:08.759Z,86.30
2023-01-29T00:37:35.387Z,86.52
2023-01-29T00:40:02.385Z,86.19
2023-01-29T00:42:47.639Z,85.35
2023-01-29T00:45:14.302Z,86.24
2023-01-29T00:47:40.945Z,85.66
2023-01-29T00:50:10.529Z,85.42
2023-01-29T00:52:37.791Z,86.01
2023-01-29T00:55:06.027Z,85.92
2023-01-29T00:57:34.304Z,85.46
2023-01-29T01:00:01.672Z,86.15
2023-01-29T01:02:47.397Z,85.53
2023-01-29T01:05:19.750Z,86.72
2023-01-29T01:07:51.530Z,85.40
2023-01-29T01:10:33.111Z,85.10
2023-01-29T01:13:02.815Z,85.85
2023-01-29T01:15:40.022Z,85.53
2023-01-29T01:18:06.812Z,85.19
2023-01-29T01:20:35.495Z,84.78
2023-01-29T01:23:02.871Z,85.42
2023-01-29T01:25:29.421Z,84.77
2023-01-29T01:30:25.458Z,85.06
2023-01-29T01:32:52.783Z,85.55
2023-01-29T01:35:19.445Z,86.09
2023-01-29T01:37:46.032Z,85.77
2023-01-29T01:40:21.375Z,85.76
2023-01-29T01:42:49.894Z,85.80
2023-01-29T01:45:31.973Z,85.64
2023-01-29T01:48:18.832Z,84.93
2023-01-29T01:50:49.917Z,86.30
2023-01-29T01:53:21.755Z,86.04
2023-01-29T01:55:52.691Z,85.48
2023-01-29T01:58:26.308Z,85.73
2023-01-29T02:00:53.403Z,85.83
2023-01-29T02:03:41.259Z,85.27
2023-01-29T02:06:28.426Z,86.07
2023-01-29T02:09:18.574Z,86.13
2023-01-29T02:11:45.222Z,86.27
2023-01-29T02:14:12.323Z,85.15
2023-01-29T02:16:39.344Z,85.90
2023-01-29T02:19:16.358Z,86.23
2023-01-29T02:22:12.699Z,85.86
2023-01-29T02:25:09.676Z,86.41
2023-01-29T02:27:48.177Z,87.27
2023-01-29T02:30:38.010Z,86.77
2023-01-29T02:33:09.695Z,87.77
2023-01-29T02:35:48.547Z,88.14
2023-01-29T02:38:36.392Z,87.41
2023-01-29T02:41:16.345Z,86.79
2023-01-29T02:43:56.118Z,87.54
2023-01-29T02:46:45.359Z,88.37
2023-01-29T02:49:23.331Z,87.78
2023-01-29T02:52:00.025Z,87.06
2023-01-29T02:54:39.849Z,87.75
2023-01-29T02:57:17.730Z,87.97
2023-01-29T02:59:50.733Z,87.91
2023-01-29T03:02:26.029Z,87.49
2023-01-29T03:05:00.940Z,87.25
2023-01-29T03:07:46.150Z,86.90
2023-01-29T03:10:33.323Z,86.77
2023-01-29T03:13:12.686Z,87.89
2023-01-29T03:15:46.945Z,87.49
2023-01-29T03:19:14.119Z,87.44
2023-01-29T03:21:51.417Z,86.55
2023-01-29T03:24:43.288Z,86.22
2023-01-29T03:27:31.174Z,86.67
2023-01-29T03:30:19.028Z,87.32
2023-01-29T03:32:51.949Z,86.67
2023-01-29T03:35:36.574Z,87.29
2023-01-29T03:38:07.384Z,86.79
2023-01-29T03:40:46.005Z,86.15
2023-01-29T03:43:33.848Z,86.85
2023-01-29T03:46:19.119Z,85.93
2023-01-29T03:48:51.760Z,86.85
2023-01-29T03:51:30.138Z,85.63
2023-01-29T03:54:01.394Z,85.07
2023-01-29T03:56:39.156Z,85.27
2023-01-29T03:59:38.808Z,83.67
2023-01-29T04:02:48.910Z,84.00
2023-01-29T04:05:20.118Z,84.65
2023-01-29T04:08:05.367Z,82.98
2023-01-29T04:10:35.836Z,82.36
2023-01-29T04:13:11.173Z,82.51
2023-01-29T04:15:46.140Z,83.87
2023-01-29T04:18:13.227Z,83.93
2023-01-29T04:21:16.150Z,82.87
2023-01-29T04:23:43.354Z,84.10
2023-01-29T04:26:41.262Z,83.64
2023-01-29T04:29:22.897Z,83.49
2023-01-29T04:32:08.814Z,83.35
2023-01-29T04:35:08.847Z,81.45
2023-01-29T04:37:51.998Z,83.20
2023-01-29T04:40:37.629Z,82.10
2023-01-29T04:43:21.785Z,82.41
2023-01-29T04:46:03.686Z,82.24
2023-01-29T04:48:58.378Z,82.41
2023-01-29T04:51:35.737Z,83.70
2023-01-29T04:54:11.032Z,84.20
2023-01-29T04:56:55.153Z,82.85
2023-01-29T04:59:30.351Z,83.90
2023-01-29T05:01:59.641Z,83.95
2023-01-29T05:04:27.882Z,82.81
2023-01-29T05:06:55.920Z,83.21
2023-01-29T05:09:23.246Z,82.28
2023-01-29T05:11:50.257Z,83.70
2023-01-29T05:14:19.724Z,83.37
2023-01-29T05:16:53.510Z,84.24
2023-01-29T05:19:20.042Z,84.35
2023-01-29T05:21:49.274Z,83.77
2023-01-29T05:24:26.344Z,84.05
2023-01-29T05:27:13.298Z,85.03
2023-01-29T05:29:46.619Z,83.70
2023-01-29T05:32:13.897Z,82.35
2023-01-29T05:34:40.380Z,82.74
2023-01-29T05:37:07.089Z,82.25
2023-01-29T05:39:33.537Z,83.10
2023-01-29T05:42:00.258Z,84.29
2023-01-29T05:44:27.388Z,84.23
2023-01-29T05:46:53.862Z,84.03
2023-01-29T05:49:20.645Z,84.22
2023-01-29T05:51:47.119Z,83.82
2023-01-29T05:54:14.173Z,83.83
2023-01-29T05:56:40.713Z,84.76
2023-01-29T05:59:07.436Z,85.77
2023-01-29T06:01:33.932Z,84.90
2023-01-29T06:04:00.416Z,83.58
2023-01-29T06:06:27.019Z,83.52
2023-01-29T06:08:53.496Z,83.22
2023-01-29T06:11:20.593Z,85.30
2023-01-29T06:13:48.143Z,83.71
2023-01-29T06:16:15.229Z,84.39
2023-01-29T06:18:42.523Z,83.56
2023-01-29T06:21:11.754Z,83.58
2023-01-29T06:23:38.485Z,83.48
2023-01-29T06:26:11.989Z,83.73
2023-01-29T06:28:39.106Z,83.28
2023-01-29T06:33:53.436Z,83.64
2023-01-29T06:36:19.896Z,83.98
2023-01-29T06:38:47.311Z,83.64
2023-01-29T06:41:17.719Z,83.80
2023-01-29T06:43:45.457Z,84.42
2023-01-29T06:46:12.007Z,85.40
2023-01-29T06:48:38.448Z,84.48
2023-01-29T06:51:06.645Z,84.39
2023-01-29T06:53:34.582Z,84.63
2023-01-29T06:56:01.118Z,84.10
2023-01-29T06:58:27.611Z,84.23
2023-01-29T07:00:54.164Z,85.13
2023-01-29T07:03:20.827Z,84.31
2023-01-29T07:05:52.334Z,85.09
2023-01-29T07:08:19.511Z,84.38
2023-01-29T07:10:45.995Z,84.16
2023-01-29T07:13:12.454Z,84.27
2023-01-29T07:15:38.922Z,83.70
2023-01-29T07:18:11.943Z,83.25
2023-01-29T07:20:40.302Z,82.79
2023-01-29T07:23:07.398Z,82.47
2023-01-29T07:25:34.687Z,82.35
2023-01-29T07:28:02.159Z,82.68
2023-01-29T07:30:28.852Z,82.46
2023-01-29T07:32:55.459Z,82.95
2023-01-29T07:35:22.204Z,82.67
2023-01-29T07:37:50.251Z,82.17
2023-01-29T07:40:17.210Z,82.54
2023-01-29T07:42:44.205Z,82.83
2023-01-29T07:45:11.642Z,82.76
2023-01-29T07:47:41.101Z,82.78
2023-01-29T07:50:07.907Z,81.20
2023-01-29T07:52:34.753Z,81.47
2023-01-29T07:55:01.264Z,81.40
2023-01-29T07:57:27.857Z,80.11
2023-01-29T07:59:54.369Z,81.32
2023-01-29T08:02:20.900Z,82.26
2023-01-29T08:04:47.382Z,81.43
2023-01-29T08:07:13.905Z,82.19
2023-01-29T08:09:40.394Z,81.78
2023-01-29T08:12:07.059Z,82.01
2023-01-29T08:14:33.497Z,82.67
2023-01-29T08:16:59.967Z,81.30
2023-01-29T08:19:27.155Z,81.45
2023-01-29T08:21:53.646Z,80.85
2023-01-29T08:24:20.235Z,80.19
2023-01-29T08:26:46.798Z,81.71
2023-01-29T08:29:13.492Z,80.76
2023-01-29T08:31:40.001Z,81.50
2023-01-29T08:34:06.513Z,81.60
2023-01-29T08:36:34.472Z,82.13
2023-01-29T08:39:00.951Z,82.47
2023-01-29T08:41:27.463Z,81.79
2023-01-29T08:43:53.992Z,82.23
2023-01-29T08:46:20.478Z,81.69
2023-01-29T08:48:46.984Z,81.09
2023-01-29T08:51:13.669Z,81.72
2023-01-29T08:53:40.101Z,82.94
2023-01-29T08:56:06.546Z,81.27
2023-01-29T08:58:33.065Z,79.92
2023-01-29T09:01:13.167Z,80.08
2023-01-29T09:03:41.187Z,78.92
2023-01-29T09:06:10.652Z,80.89
2023-01-29T09:08:37.410Z,81.49
2023-01-29T09:11:03.985Z,81.49
2023-01-29T09:13:30.596Z,80.85
2023-01-29T09:16:01.700Z,79.45
2023-01-29T09:18:29.716Z,80.40
2023-01-29T09:20:56.184Z,79.64
2023-01-29T09:23:22.857Z,80.90
2023-01-29T09:25:49.568Z,80.09
2023-01-29T09:28:17.653Z,80.81
2023-01-29T09:30:44.883Z,79.95
2023-01-29T09:33:11.562Z,79.50
2023-01-29T09:35:40.981Z,79.91
2023-01-29T09:38:08.453Z,79.37
2023-01-29T09:41:23.274Z,77.73
2023-01-29T09:43:55.174Z,79.46
2023-01-29T09:46:36.810Z,78.44
2023-01-29T09:49:14.780Z,77.63
2023-01-29T09:51:45.895Z,78.07
2023-01-29T09:54:16.414Z,76.38
2023-01-29T09:56:46.016Z,77.75
2023-01-29T09:59:17.297Z,77.29
2023-01-29T10:02:21.998Z,76.01
2023-01-29T10:05:13.284Z,76.02
2023-01-29T10:08:20.614Z,76.31
2023-01-29T10:11:02.052Z,73.69
2023-01-29T10:13:48.006Z,77.68
2023-01-29T10:16:55.741Z,76.90
2023-01-29T10:19:50.503Z,75.87
2023-01-29T10:22:35.115Z,76.17
2023-01-29T10:25:06.745Z,76.24
2023-01-29T10:27:38.505Z,75.58
2023-01-29T10:30:37.063Z,75.82
2023-01-29T10:33:06.832Z,76.67
2023-01-29T10:35:40.940Z,75.80
2023-01-29T10:38:33.606Z,76.80
2023-01-29T10:41:19.151Z,75.66
2023-01-29T10:44:20.703Z,74.82
2023-01-29T10:47:07.879Z,76.19
2023-01-29T10:49:40.213Z,74.42
2023-01-29T10:52:25.096Z,75.66
2023-01-29T10:55:12.803Z,75.39
2023-01-29T10:57:56.438Z,74.29
2023-01-29T11:00:27.015Z,75.44
2023-01-29T11:02:53.675Z,72.40
2023-01-29T11:05:33.180Z,74.37
2023-01-29T11:08:11.660Z,74.01
2023-01-29T11:10:44.444Z,73.70
2023-01-29T11:13:14.972Z,72.41
2023-01-29T11:33:12.891Z,75.28
2023-01-29T11:35:39.478Z,75.23
2023-01-29T11:38:08.479Z,74.17
2023-01-29T11:40:40.229Z,72.89
2023-01-29T11:43:20.067Z,75.44
2023-01-29T11:45:51.437Z,74.24
2023-01-29T11:48:21.337Z,75.36
2023-01-29T11:50:53.673Z,75.09
2023-01-29T11:53:37.439Z,72.94
2023-01-29T11:56:15.762Z,74.41
2023-01-29T11:58:43.335Z,73.78
2023-01-29T12:01:10.883Z,73.93
2023-01-29T12:03:43.814Z,73.43
2023-01-29T12:06:22.187Z,74.51
2023-01-29T12:09:01.367Z,73.37
2023-01-29T12:11:32.966Z,74.46
2023-01-29T12:14:05.100Z,72.79
2023-01-29T12:16:50.456Z,73.13
2023-01-29T12:19:31.262Z,73.47
2023-01-29T12:22:06.603Z,73.20
2023-01-29T12:24:44.566Z,74.84
2023-01-29T12:27:31.395Z,73.98
2023-01-29T12:30:20.435Z,72.22
2023-01-29T12:32:59.603Z,71.35
2023-01-29T12:35:35.027Z,71.93
2023-01-29T12:38:13.165Z,72.17
2023-01-29T12:40:48.780Z,74.35
2023-01-29T12:43:23.917Z,72.53
2023-01-29T12:45:53.888Z,71.98
2023-01-29T12:48:39.523Z,71.39
2023-01-29T12:51:19.379Z,69.96
2023-01-29T12:53:57.267Z,71.05
2023-01-29T12:56:32.612Z,71.22
2023-01-29T12:59:04.727Z,70.88
2023-01-29T13:02:00.182Z,72.37
2023-01-29T13:04:50.409Z,69.35
2023-01-29T13:07:24.750Z,72.36
2023-01-29T13:09:57.212Z,69.94
2023-01-29T13:12:24.492Z,70.39
2023-01-29T13:15:05.640Z,71.82
2023-01-29T13:17:44.550Z,70.30
2023-01-29T13:20:28.035Z,71.23
2023-01-29T13:23:01.089Z,72.48
2023-01-29T13:25:27.726Z,70.84
2023-01-29T13:27:54.413Z,70.69
2023-01-29T13:30:25.095Z,70.96
2023-01-29T13:32:54.312Z,70.70
2023-01-29T13:35:22.886Z,69.77
2023-01-29T13:37:52.641Z,70.00
2023-01-29T13:40:27.705Z,70.18
2023-01-29T13:42:57.310Z,69.71
2023-01-29T13:45:24.896Z,70.10
2023-01-29T13:47:52.988Z,71.02
2023-01-29T13:50:21.870Z,70.41
2023-01-29T13:52:58.843Z,71.12
2023-01-29T13:55:31.450Z,71.80
2023-01-29T13:58:02.796Z,71.71
2023-01-29T14:00:35.476Z,72.76
2023-01-29T14:03:05.217Z,71.15
2023-01-29T14:05:31.863Z,70.74
2023-01-29T14:08:02.161Z,71.16
2023-01-29T14:10:36.370Z,71.21
2023-01-29T14:13:11.640Z,70.80
2023-01-29T14:15:40.060Z,70.76
2023-01-29T14:18:12.632Z,72.98
2023-01-29T14:20:46.265Z,71.61
2023-01-29T14:23:22.627Z,72.23
2023-01-29T14:25:49.481Z,72.29
2023-01-29T14:28:26.918Z,71.74
2023-01-29T14:30:53.671Z,72.36
2023-01-29T14:33:28.004Z,72.06
2023-01-29T14:35:57.696Z,72.90
2023-01-29T14:38:27.864Z,72.40
2023-01-29T14:41:05.859Z,72.71
2023-01-29T14:43:32.540Z,72.93
2023-01-29T14:46:34.291Z,72.58
2023-01-29T14:49:01.425Z,73.62
2023-01-29T14:51:34.443Z,73.60
2023-01-29T14:54:26.722Z,73.38
2023-01-29T14:56:58.611Z,74.72
2023-01-29T14:59:40.102Z,74.56
2023-01-29T15:02:26.958Z,73.25
2023-01-29T15:04:59.638Z,73.95
2023-01-29T15:07:51.328Z,74.79
2023-01-29T15:10:23.410Z,73.78
2023-01-29T15:13:01.901Z,75.21
2023-01-29T15:15:46.289Z,74.61
2023-01-29T15:18:15.452Z,74.62
2023-01-29T15:20:43.995Z,75.26
2023-01-29T15:23:27.576Z,75.08
2023-01-29T15:25:57.200Z,75.33
2023-01-29T15:28:24.241Z,75.28
2023-01-29T15:30:55.448Z,75.67
2023-01-29T15:33:22.399Z,76.18
2023-01-29T15:35:51.653Z,76.42
2023-01-29T15:38:22.487Z,76.41
2023-01-29T15:40:57.163Z,76.60
2023-01-29T15:43:26.009Z,76.41
2023-01-29T15:45:56.474Z,76.33
2023-01-29T15:48:32.880Z,77.53
2023-01-29T15:51:00.006Z,77.25
2023-01-29T15:53:35.011Z,77.47
2023-01-29T15:56:01.812Z,76.93
2023-01-29T15:58:32.904Z,77.36
2023-01-29T16:01:01.993Z,77.15
2023-01-29T16:03:32.525Z,77.51
2023-01-29T16:06:00.332Z,78.06
2023-01-29T16:08:27.935Z,78.46
2023-01-29T16:11:00.700Z,78.56
2023-01-29T16:13:33.896Z,79.33
2023-01-29T16:16:20.234Z,79.20
2023-01-29T16:18:59.550Z,79.71
2023-01-29T16:21:36.143Z,80.29
2023-01-29T16:24:09.645Z,80.55
2023-01-29T16:26:44.761Z,80.53
2023-01-29T16:29:14.702Z,80.71
2023-01-29T16:31:44.483Z,80.94
2023-01-29T16:34:21.147Z,81.58
2023-01-29T16:36:49.276Z,81.30
2023-01-29T16:39:22.824Z,81.81
2023-01-29T16:42:09.666Z,82.33
2023-01-29T16:44:40.303Z,81.92
2023-01-29T16:47:12.991Z,81.94
2023-01-29T16:49:39.498Z,82.16
2023-01-29T16:52:32.863Z,82.13
2023-01-29T16:55:02.559Z,82.32
2023-01-29T16:57:33.087Z,83.06
2023-01-29T17:00:03.233Z,83.04
2023-01-29T17:02:33.380Z,82.92
2023-01-29T17:05:18.592Z,83.19
2023-01-29T17:07:46.420Z,83.28
2023-01-29T17:10:19.129Z,82.97
2023-01-29T17:12:54.084Z,83.13
2023-01-29T17:15:46.199Z,83.20
2023-01-29T17:18:17.814Z,83.20
2023-01-29T17:20:44.297Z,83.23
2023-01-29T17:23:10.803Z,83.72
2023-01-29T17:25:37.814Z,82.98
2023-01-29T17:28:04.637Z,83.63
2023-01-29T17:30:34.756Z,83.88
2023-01-29T17:33:02.858Z,84.42
2023-01-29T17:35:29.405Z,83.81
2023-01-29T17:37:55.888Z,84.00
2023-01-29T17:40:37.034Z,83.44
2023-01-29T17:43:03.493Z,83.90
2023-01-29T17:45:30.576Z,83.99
2023-01-29T17:47:57.049Z,83.21
2023-01-29T17:50:27.569Z,83.02
2023-01-29T17:52:54.100Z,84.02
2023-01-29T17:55:20.711Z,83.60
2023-01-29T17:57:47.253Z,83.36
2023-01-29T18:00:22.750Z,83.83
2023-01-29T18:02:49.371Z,84.94
2023-01-29T18:05:17.157Z,84.14
2023-01-29T18:07:45.867Z,84.92
2023-01-29T18:10:21.401Z,84.49
2023-01-29T18:12:47.952Z,84.65
2023-01-29T18:15:15.515Z,84.40
2023-01-29T18:17:43.217Z,84.68
2023-01-29T18:20:22.975Z,84.25
2023-01-29T18:22:49.635Z,84.25
2023-01-29T18:25:16.607Z,84.82
2023-01-29T18:27:43.907Z,84.42
2023-01-29T18:30:11.392Z,84.37
2023-01-29T18:32:38.074Z,84.89
2023-01-29T18:35:06.082Z,84.51
2023-01-29T18:37:33.303Z,84.86
2023-01-29T18:39:59.878Z,84.52
2023-01-29T18:42:26.439Z,84.90
2023-01-29T18:44:52.891Z,85.20
2023-01-29T18:47:19.484Z,85.30
2023-01-29T18:49:46.124Z,85.36
2023-01-29T18:52:12.558Z,86.04
2023-01-29T18:54:38.955Z,86.27
2023-01-29T18:57:13.389Z,86.34
2023-01-29T18:59:51.891Z,86.48
2023-01-29T19:02:19.406Z,87.31
2023-01-29T19:04:46.508Z,87.79
2023-01-29T19:07:14.720Z,87.72
2023-01-29T19:09:42.154Z,88.56
2023-01-29T19:12:08.999Z,88.99
2023-01-29T19:14:35.433Z,88.40
2023-01-29T19:17:01.919Z,89.48
2023-01-29T19:19:28.795Z,88.94
2023-01-29T19:21:55.408Z,89.27
2023-01-29T19:24:22.381Z,89.32
2023-01-29T19:26:49.891Z,89.60
2023-01-29T19:29:17.674Z,89.81
2023-01-29T19:31:44.215Z,89.88
2023-01-29T19:34:10.757Z,90.19
2023-01-29T19:36:37.342Z,90.38
2023-01-29T19:39:04.624Z,89.84
2023-01-29T19:41:31.147Z,90.26
2023-01-29T19:43:57.638Z,89.92
2023-01-29T19:46:24.163Z,90.79
2023-01-29T19:48:50.633Z,90.44
2023-01-29T19:51:17.171Z,90.13
2023-01-29T19:53:44.164Z,90.47
2023-01-29T19:56:16.368Z,91.07
2023-01-29T19:58:43.494Z,90.50
2023-01-29T20:01:16.190Z,91.33
2023-01-29T20:03:46.324Z,91.09
2023-01-29T20:06:15.373Z,91.26
2023-01-29T20:08:41.837Z,91.04
2023-01-29T20:11:09.822Z,91.39
2023-01-29T20:13:36.312Z,90.29
2023-01-29T20:16:03.908Z,90.37
2023-01-29T20:18:30.766Z,91.61
2023-01-29T20:20:57.607Z,91.12
2023-01-29T20:23:37.111Z,91.44
2023-01-29T20:26:05.922Z,92.07
2023-01-29T20:28:32.713Z,92.05
2023-01-29T20:30:59.268Z,93.13
2023-01-29T20:33:26.669Z,93.42
2023-01-29T20:35:57.634Z,92.92
2023-01-29T20:38:30.147Z,92.76
2023-01-29T20:41:02.945Z,93.19
2023-01-29T20:43:29.427Z,93.36
2023-01-29T20:45:59.495Z,94.51
2023-01-29T20:48:26.519Z,94.50
2023-01-29T20:50:54.095Z,94.64
2023-01-29T20:53:20.587Z,94.54
2023-01-29T20:55:47.264Z,94.51
2023-01-29T20:58:13.937Z,94.59
2023-01-29T21:00:41.351Z,94.69
2023-01-29T21:03:07.856Z,94.17
2023-01-29T21:05:34.344Z,94.29
2023-01-29T21:08:00.869Z,95.00
2023-01-29T21:10:27.352Z,95.15
2023-01-29T21:12:54.646Z,94.89
2023-01-29T21:15:21.301Z,95.63
2023-01-29T21:17:48.056Z,95.89
2023-01-29T21:20:14.944Z,95.93
2023-01-29T21:22:43.868Z,96.44
2023-01-29T21:25:10.875Z,95.99
2023-01-29T21:27:37.472Z,96.45
2023-01-29T21:30:04.522Z,95.77
2023-01-29T21:32:31.175Z,96.16
2023-01-29T21:34:57.700Z,96.42
2023-01-29T21:37:24.187Z,96.14
2023-01-29T21:39:50.699Z,96.07
2023-01-29T21:42:36.000Z,95.66
2023-01-29T21:45:02.569Z,95.95
2023-01-29T21:47:29.041Z,96.19
2023-01-29T21:49:55.524Z,95.57
2023-01-29T21:52:22.151Z,95.58
2023-01-29T21:54:48.976Z,95.63
2023-01-29T21:57:16.521Z,95.67
2023-01-29T21:59:43.506Z,96.52
2023-01-29T22:02:15.042Z,96.56
2023-01-29T22:04:42.620Z,96.15
2023-01-29T22:07:10.781Z,96.58
2023-01-29T22:09:37.772Z,96.59
2023-01-29T22:12:06.551Z,95.86
2023-01-29T22:14:33.268Z,96.40
2023-01-29T22:16:59.948Z,95.44
2023-01-29T22:19:26.503Z,96.33
2023-01-29T22:21:53.233Z,95.67
2023-01-29T22:24:20.820Z,96.45
2023-01-29T22:26:49.393Z,95.96
2023-01-29T22:29:17.024Z,95.88
2023-01-29T22:31:44.267Z,95.94
2023-01-29T22:34:11.692Z,95.52
2023-01-29T22:36:38.944Z,96.49
2023-01-29T22:39:07.553Z,96.48
2023-01-29T22:41:34.465Z,95.67
2023-01-29T22:44:01.145Z,94.82
2023-01-29T22:46:27.789Z,94.77
2023-01-29T22:48:54.579Z,94.99
2023-01-29T22:51:21.223Z,95.08
2023-01-29T22:53:55.615Z,94.66
2023-01-29T22:56:25.667Z,94.91
2023-01-29T22:58:53.602Z,94.40
2023-01-29T23:17:54.434Z,97.06
2023-01-29T23:20:21.716Z,97.27
2023-01-29T23:22:48.843Z,97.57
2023-01-29T23:25:15.625Z,97.84
2023-01-29T23:27:42.205Z,97.58
2023-01-29T23:30:09.405Z,96.53
2023-01-29T23:32:36.066Z,96.99
2023-01-29T23:35:02.659Z,96.43
2023-01-29T23:37:29.195Z,97.11
2023-01-29T23:39:55.725Z,97.33
2023-01-29T23:42:22.255Z,97.30
2023-01-29T23:44:48.753Z,97.80
2023-01-29T23:47:15.307Z,97.14
2023-01-29T23:49:41.862Z,97.12
2023-01-29T23:52:08.395Z,96.97
2023-01-29T23:54:34.884Z,96.60
2023-01-29T23:57:01.446Z,96.50
2023-01-29T23:59:28.973Z,97.03
